Luning, Nevada
Current Conditions -  °F | °C
As of 9:56 AM on Monday 24 Nov 2014 (Local Time) from KTPH Reporting Station
Clear Clear  
Wind Chill: 41°   Ceiling: Unl
Heat Index: 41°   Visibility: 10mi
Dew Point:   Wind: 0mph
Humidity: 26%   Direction: NA
Pressure: 30.45"   Gusts: NA
Location:  38.51°N, 118.18°W
Report Text: KTPH 241756Z AUTO 00000KT 10SM CLR 05/M13 A3045 RMK AO2 SLP316 T00501133 10056 21072 51015
Loading
Personal Weather Stations






























Interactive Weather Map New forecast layout! Learn more

10-Day Weather Forecast

Advertisements
Track Severe Weather on mobile